createdAt,value
2022-08-12T00:00:55.379Z,99681.06
2022-08-12T00:03:23.231Z,99684.19
2022-08-12T00:06:03.964Z,99685.25
2022-08-12T00:08:37.246Z,99679.94
2022-08-12T00:11:12.221Z,99687.25
2022-08-12T00:13:40.346Z,99697.41
2022-08-12T00:16:10.548Z,99690.72
2022-08-12T00:18:38.227Z,99687.53
2022-08-12T00:21:05.945Z,99689.16
2022-08-12T00:23:35.362Z,99682.88
2022-08-12T00:26:22.395Z,99679.22
2022-08-12T00:28:51.018Z,99675.28
2022-08-12T00:31:21.057Z,99675.66
2022-08-12T00:33:52.370Z,99666.53
2022-08-12T00:36:32.135Z,99673.47
2022-08-12T00:39:04.226Z,99667.97
2022-08-12T00:41:34.070Z,99672.63
2022-08-12T00:44:05.152Z,99665.84
2022-08-12T00:46:47.536Z,99669.19
2022-08-12T00:49:16.082Z,99666.69
2022-08-12T00:51:46.445Z,99679.28
2022-08-12T00:54:16.163Z,99679.81
2022-08-12T00:56:43.430Z,99678.34
2022-08-12T00:59:11.477Z,99680.69
2022-08-12T01:02:11.689Z,99681.38
2022-08-12T01:04:33.907Z,99679.38
2022-08-12T01:07:05.094Z,99683.31
2022-08-12T01:09:34.071Z,99681.00
2022-08-12T01:12:02.839Z,99678.56
2022-08-12T01:14:31.910Z,99677.72
2022-08-12T01:17:03.367Z,99685.50
2022-08-12T01:19:30.746Z,99684.75
2022-08-12T01:22:22.434Z,99688.22
2022-08-12T01:24:57.891Z,99689.56
2022-08-12T01:27:31.905Z,99689.09
2022-08-12T01:30:08.322Z,99690.25
2022-08-12T01:32:40.323Z,99692.91
2022-08-12T01:35:11.724Z,99695.06
2022-08-12T01:37:47.730Z,99702.88
2022-08-12T01:40:33.409Z,99699.25
2022-08-12T01:43:07.589Z,99695.28
2022-08-12T01:45:46.005Z,99689.38
2022-08-12T01:48:28.957Z,99689.38
2022-08-12T01:51:08.385Z,99680.44
2022-08-12T01:54:00.040Z,99678.13
2022-08-12T01:56:44.364Z,99668.06
2022-08-12T01:59:20.832Z,99672.00
2022-08-12T02:01:54.231Z,99661.94
2022-08-12T02:04:36.777Z,99672.66
2022-08-12T02:07:20.084Z,99669.03
2022-08-12T02:10:00.710Z,99668.00
2022-08-12T02:12:48.550Z,99672.34
2022-08-12T02:15:34.740Z,99673.00
2022-08-12T02:18:16.906Z,99670.03
2022-08-12T02:20:57.330Z,99671.81
2022-08-12T02:23:26.607Z,99670.50
2022-08-12T02:26:01.162Z,99675.13
2022-08-12T02:28:30.698Z,99683.88
2022-08-12T02:31:05.784Z,99672.66
2022-08-12T02:33:34.838Z,99670.50
2022-08-12T02:36:03.561Z,99672.34
2022-08-12T02:38:31.629Z,99662.91
2022-08-12T02:41:02.962Z,99662.41
2022-08-12T02:43:39.627Z,99669.69
2022-08-12T02:46:14.455Z,99666.41
2022-08-12T02:48:50.121Z,99664.09
2022-08-12T02:51:23.594Z,99669.22
2022-08-12T02:54:04.615Z,99664.09
2022-08-12T02:56:35.728Z,99655.34
2022-08-12T02:59:05.225Z,99659.28
2022-08-12T03:01:34.797Z,99658.78
2022-08-12T03:04:06.913Z,99658.13
2022-08-12T03:06:53.508Z,99655.66
2022-08-12T03:09:24.411Z,99654.00
2022-08-12T03:12:02.726Z,99663.75
2022-08-12T03:14:35.238Z,99657.78
2022-08-12T03:17:16.006Z,99659.28
2022-08-12T03:20:09.953Z,99655.13
2022-08-12T03:22:31.572Z,99647.91
2022-08-12T03:25:00.680Z,99651.00
2022-08-12T03:27:30.315Z,99657.13
2022-08-12T03:29:59.577Z,99662.22
2022-08-12T03:32:36.353Z,99658.09
2022-08-12T03:35:05.275Z,99663.38
2022-08-12T03:37:35.419Z,99663.22
2022-08-12T03:40:02.684Z,99663.72
2022-08-12T03:42:38.246Z,99656.59
2022-08-12T03:45:21.827Z,99670.28
2022-08-12T03:47:57.026Z,99659.09
2022-08-12T03:50:26.177Z,99668.66
2022-08-12T03:52:53.103Z,99662.88
2022-08-12T03:55:20.685Z,99668.13
2022-08-12T03:57:49.398Z,99666.63
2022-08-12T04:00:24.198Z,99677.50
2022-08-12T04:02:52.089Z,99674.38
2022-08-12T04:05:21.665Z,99671.22
2022-08-12T04:07:57.957Z,99676.00
2022-08-12T04:10:29.369Z,99677.28
2022-08-12T04:12:57.669Z,99678.66
2022-08-12T04:15:27.020Z,99675.03
2022-08-12T04:18:06.430Z,99675.69
2022-08-12T04:20:34.025Z,99678.75
2022-08-12T04:23:01.759Z,99670.47
2022-08-12T04:25:32.278Z,99675.47
2022-08-12T04:28:11.377Z,99677.16
2022-08-12T04:30:42.561Z,99675.47
2022-08-12T04:33:09.530Z,99669.16
2022-08-12T04:35:36.756Z,99673.25
2022-08-12T04:38:03.776Z,99675.63
2022-08-12T04:40:34.290Z,99685.56
2022-08-12T04:43:02.164Z,99690.31
2022-08-12T04:45:30.622Z,99688.25
2022-08-12T04:47:59.843Z,99686.34
2022-08-12T04:50:33.907Z,99692.56
2022-08-12T04:53:06.072Z,99692.53
2022-08-12T04:55:34.058Z,99695.19
2022-08-12T04:58:01.165Z,99696.31
2022-08-12T05:00:28.255Z,99697.94
2022-08-12T05:02:55.206Z,99708.97
2022-08-12T05:05:24.326Z,99709.34
2022-08-12T05:07:54.953Z,99696.47
2022-08-12T05:10:33.572Z,99700.44
2022-08-12T05:13:09.073Z,99697.78
2022-08-12T05:16:05.097Z,99696.06
2022-08-12T05:18:29.086Z,99696.22
2022-08-12T05:20:58.162Z,99699.72
2022-08-12T05:23:25.416Z,99704.28
2022-08-12T05:25:53.622Z,99697.25
2022-08-12T05:28:20.857Z,99712.91
2022-08-12T05:30:47.785Z,99707.78
2022-08-12T05:33:15.011Z,99709.72
2022-08-12T05:35:44.523Z,99714.09
2022-08-12T05:38:15.519Z,99710.13
2022-08-12T05:40:43.065Z,99708.81
2022-08-12T05:43:10.015Z,99708.56
2022-08-12T05:45:40.509Z,99729.78
2022-08-12T05:48:09.985Z,99725.84
2022-08-12T05:50:37.135Z,99728.13
2022-08-12T05:53:04.183Z,99722.16
2022-08-12T05:55:33.302Z,99742.94
2022-08-12T05:58:01.229Z,99735.44
2022-08-12T06:00:28.666Z,99738.78
2022-08-12T06:02:56.468Z,99733.56
2022-08-12T06:05:23.505Z,99742.91
2022-08-12T06:08:01.836Z,99749.31
2022-08-12T06:10:36.197Z,99747.41
2022-08-12T06:13:06.553Z,99744.69
2022-08-12T06:15:35.836Z,99742.34
2022-08-12T06:18:13.925Z,99742.81
2022-08-12T06:20:47.030Z,99747.53
2022-08-12T06:23:14.149Z,99743.81
2022-08-12T06:25:43.223Z,99747.34
2022-08-12T06:28:15.446Z,99747.50
2022-08-12T06:30:57.382Z,99751.53
2022-08-12T06:33:33.816Z,99739.41
2022-08-12T06:36:24.526Z,99746.38
2022-08-12T06:38:57.779Z,99752.34
2022-08-12T06:41:26.086Z,99737.28
2022-08-12T06:44:06.278Z,99740.00
2022-08-12T06:46:35.639Z,99747.16
2022-08-12T06:49:02.561Z,99747.16
2022-08-12T06:51:32.250Z,99749.31
2022-08-12T06:54:01.333Z,99744.41
2022-08-12T06:57:00.121Z,99738.91
2022-08-12T06:59:17.119Z,99744.88
2022-08-12T07:01:49.850Z,99738.00
2022-08-12T07:04:37.513Z,99730.91
2022-08-12T07:07:07.130Z,99739.34
2022-08-12T07:10:06.033Z,99737.28
2022-08-12T07:12:24.310Z,99739.56
2022-08-12T07:14:55.853Z,99738.38
2022-08-12T07:17:23.214Z,99737.22
2022-08-12T07:19:50.239Z,99741.03
2022-08-12T07:22:17.142Z,99734.09
2022-08-12T07:24:44.326Z,99732.22
2022-08-12T07:27:11.180Z,99737.44
2022-08-12T07:29:58.321Z,99737.50
2022-08-12T07:32:29.837Z,99731.63
2022-08-12T07:34:56.929Z,99738.88
2022-08-12T07:37:23.835Z,99738.13
2022-08-12T07:40:00.432Z,99728.19
2022-08-12T07:42:29.074Z,99732.06
2022-08-12T07:44:57.370Z,99731.53
2022-08-12T07:47:25.137Z,99730.00
2022-08-12T07:50:04.750Z,99734.25
2022-08-12T07:52:34.102Z,99726.81
2022-08-12T07:55:01.640Z,99731.91
2022-08-12T07:57:30.171Z,99739.47
2022-08-12T07:59:58.718Z,99726.81
2022-08-12T08:02:26.716Z,99721.38
2022-08-12T08:04:54.779Z,99718.75
2022-08-12T08:07:21.951Z,99704.81
2022-08-12T08:09:50.043Z,99708.66
2022-08-12T08:12:26.908Z,99704.25
2022-08-12T08:14:56.118Z,99705.94
2022-08-12T08:17:25.061Z,99703.75
2022-08-12T08:20:03.825Z,99694.97
2022-08-12T08:22:41.950Z,99692.16
2022-08-12T08:25:20.471Z,99695.16
2022-08-12T08:28:01.206Z,99681.66
2022-08-12T08:30:31.146Z,99683.84
2022-08-12T08:33:00.711Z,99681.47
2022-08-12T08:35:47.000Z,99680.94
2022-08-12T08:38:32.000Z,99684.75
2022-08-12T08:41:01.330Z,99690.25
2022-08-12T08:43:44.289Z,99702.06
2022-08-12T08:46:11.884Z,99697.56
2022-08-12T08:48:40.569Z,99691.53
2022-08-12T08:51:07.603Z,99685.03
2022-08-12T08:53:35.084Z,99684.38
2022-08-12T08:56:04.977Z,99688.78
2022-08-12T08:58:33.634Z,99696.66
2022-08-12T09:01:00.549Z,99687.19
2022-08-12T09:05:09.237Z,99684.91
2022-08-12T09:06:17.181Z,99677.00
2022-08-12T09:08:46.354Z,99674.38
2022-08-12T09:12:06.688Z,99675.41
2022-08-12T09:16:53.093Z,99692.25
2022-08-12T09:22:18.353Z,99678.41
2022-08-12T09:24:47.929Z,99674.50
2022-08-12T09:27:15.397Z,99662.72
2022-08-12T09:30:10.186Z,99676.59
2022-08-12T09:33:04.180Z,99675.84
2022-08-12T09:35:28.620Z,99668.75
2022-08-12T09:38:01.289Z,99659.94
2022-08-12T09:40:57.248Z,99651.91
2022-08-12T09:43:18.878Z,99660.84
2022-08-12T09:46:14.107Z,99654.34
2022-08-12T09:48:35.055Z,99653.91
2022-08-12T09:51:04.350Z,99664.09
2022-08-12T09:53:38.541Z,99645.81
2022-08-12T09:56:58.400Z,99647.25
2022-08-12T09:59:00.145Z,99643.22
2022-08-12T10:01:35.082Z,99640.72
2022-08-12T10:04:19.606Z,99639.34
2022-08-12T10:06:53.800Z,99624.81
2022-08-12T10:09:28.528Z,99631.25
2022-08-12T10:12:13.832Z,99614.41
2022-08-12T10:14:50.186Z,99617.91
2022-08-12T10:17:20.888Z,99609.72
2022-08-12T10:19:51.975Z,99610.22
2022-08-12T10:22:38.965Z,99608.03
2022-08-12T10:25:17.740Z,99608.56
2022-08-12T10:28:04.562Z,99609.44
2022-08-12T10:30:42.157Z,99601.91
2022-08-12T10:33:19.086Z,99607.78
2022-08-12T10:35:46.927Z,99592.00
2022-08-12T10:38:37.962Z,99598.50
2022-08-12T10:41:03.988Z,99610.16
2022-08-12T10:43:55.133Z,99582.72
2022-08-12T10:46:18.309Z,99604.97
2022-08-12T10:48:58.355Z,99588.97
2022-08-12T10:52:04.973Z,99596.28
2022-08-12T10:54:20.337Z,99585.34
2022-08-12T10:56:56.308Z,99595.06
2022-08-12T11:00:30.205Z,99582.31
2022-08-12T11:04:26.258Z,99583.94
2022-08-12T11:04:58.939Z,99580.84
2022-08-12T11:08:36.889Z,99573.78
2022-08-12T11:10:15.875Z,99568.88
2022-08-12T11:12:59.455Z,99565.81
2022-08-12T11:15:33.236Z,99568.97
2022-08-12T11:18:18.410Z,99570.59
2022-08-12T11:20:47.086Z,99561.38
2022-08-12T11:23:24.981Z,99547.00
2022-08-12T11:26:05.645Z,99556.41
2022-08-12T11:28:36.920Z,99553.69
2022-08-12T11:31:12.155Z,99556.47
2022-08-12T11:34:06.235Z,99550.19
2022-08-12T11:36:29.743Z,99545.13
2022-08-12T11:38:58.230Z,99553.44
2022-08-12T11:41:31.450Z,99543.78
2022-08-12T11:44:02.028Z,99537.13
2022-08-12T11:46:51.464Z,99540.06
2022-08-12T11:49:31.168Z,99532.56
2022-08-12T11:52:01.716Z,99527.44
2022-08-12T11:54:29.841Z,99515.78
2022-08-12T11:57:00.494Z,99516.75
2022-08-12T12:02:21.333Z,99517.34
2022-08-12T12:04:52.315Z,99521.91
2022-08-12T12:07:22.156Z,99519.22
2022-08-12T12:09:52.351Z,99519.22
2022-08-12T12:12:31.441Z,99514.16
2022-08-12T12:15:03.171Z,99493.47
2022-08-12T12:17:38.361Z,99502.56
2022-08-12T12:20:08.967Z,99512.28
2022-08-12T12:22:37.446Z,99517.31
2022-08-12T12:25:12.946Z,99504.03
2022-08-12T12:28:05.162Z,99508.06
2022-08-12T12:30:35.314Z,99501.22
2022-08-12T12:33:03.256Z,99501.91
2022-08-12T12:36:06.626Z,99496.22
2022-08-12T12:38:18.047Z,99511.81
2022-08-12T12:40:50.424Z,99493.72
2022-08-12T12:43:29.090Z,99508.75
2022-08-12T12:46:08.728Z,99490.44
2022-08-12T12:48:36.096Z,99494.09
2022-08-12T12:51:03.334Z,99496.25
2022-08-12T12:54:07.187Z,99487.66
2022-08-12T12:56:34.642Z,99486.28
2022-08-12T12:59:02.826Z,99480.81
2022-08-12T13:01:38.362Z,99476.78
2022-08-12T13:04:12.344Z,99478.69
2022-08-12T13:06:41.660Z,99481.31
2022-08-12T13:09:12.931Z,99480.06
2022-08-12T13:11:41.939Z,99465.81
2022-08-12T13:14:29.551Z,99485.19
2022-08-12T13:17:02.784Z,99475.03
2022-08-12T13:19:37.596Z,99477.50
2022-08-12T13:22:10.534Z,99474.34
2022-08-12T13:24:38.018Z,99463.00
2022-08-12T13:27:05.156Z,99468.75
2022-08-12T13:29:33.536Z,99472.94
2022-08-12T13:32:28.267Z,99465.81
2022-08-12T13:34:52.030Z,99469.31
2022-08-12T13:37:19.926Z,99474.06
2022-08-12T13:39:46.951Z,99461.16
2022-08-12T13:42:16.914Z,99460.59
2022-08-12T13:44:46.254Z,99471.75
2022-08-12T13:47:19.817Z,99465.94
2022-08-12T13:49:54.438Z,99456.50
2022-08-12T13:52:26.100Z,99452.44
2022-08-12T13:54:54.186Z,99461.28
2022-08-12T13:57:38.049Z,99457.53
2022-08-12T14:00:15.090Z,99461.44
2022-08-12T14:02:45.164Z,99453.16
2022-08-12T14:05:31.492Z,99458.72
2022-08-12T14:08:03.995Z,99463.84
2022-08-12T14:10:37.925Z,99448.78
2022-08-12T14:13:10.333Z,99450.72
2022-08-12T14:15:46.483Z,99441.72
2022-08-12T14:18:19.251Z,99446.09
2022-08-12T14:20:54.640Z,99437.44
2022-08-12T14:24:04.295Z,99432.38
2022-08-12T14:26:17.069Z,99434.81
2022-08-12T14:32:29.680Z,99430.50
2022-08-12T14:34:57.955Z,99435.38
2022-08-12T14:37:55.045Z,99431.91
2022-08-12T14:40:18.510Z,99432.09
2022-08-12T14:42:46.869Z,99420.75
2022-08-12T14:45:14.636Z,99431.72
2022-08-12T14:47:49.891Z,99422.19
2022-08-12T14:50:58.723Z,99433.44
2022-08-12T14:58:40.301Z,99442.72
2022-08-12T15:01:21.483Z,99433.25
2022-08-12T15:03:53.919Z,99428.94
2022-08-12T15:06:39.862Z,99438.16
2022-08-12T15:09:12.568Z,99435.50
2022-08-12T15:11:55.751Z,99436.19
2022-08-12T15:14:30.318Z,99432.94
2022-08-12T15:17:00.447Z,99430.72
2022-08-12T15:20:30.711Z,99422.22
2022-08-12T15:22:37.331Z,99428.38
2022-08-12T15:25:07.177Z,99426.53
2022-08-12T15:28:05.528Z,99432.38
2022-08-12T15:30:23.271Z,99428.97
2022-08-12T15:32:50.454Z,99428.97
2022-08-12T15:35:17.750Z,99425.59
2022-08-12T15:38:10.477Z,99426.81
2022-08-12T15:40:48.494Z,99424.34
2022-08-12T15:43:51.403Z,99426.72
2022-08-12T15:46:09.069Z,99421.41
2022-08-12T15:48:43.831Z,99421.84
2022-08-12T15:51:59.444Z,99423.03
2022-08-12T15:54:30.720Z,99420.59
2022-08-12T15:57:10.762Z,99424.31
2022-08-12T16:00:02.346Z,99419.06
2022-08-12T16:02:50.445Z,99418.84
2022-08-12T16:06:10.506Z,99419.53
2022-08-12T16:08:17.449Z,99420.00
2022-08-12T16:10:48.528Z,99403.69
2022-08-12T16:13:17.591Z,99419.91
2022-08-12T16:15:50.921Z,99416.72
2022-08-12T16:18:29.069Z,99412.53
2022-08-12T16:20:55.913Z,99401.22
2022-08-12T16:23:36.347Z,99401.56
2022-08-12T16:26:15.116Z,99409.97
2022-08-12T16:28:44.145Z,99409.16
2022-08-12T16:31:22.523Z,99400.66
2022-08-12T16:33:59.534Z,99405.75
2022-08-12T16:36:29.404Z,99404.72
2022-08-12T16:38:56.779Z,99402.28
2022-08-12T16:41:28.315Z,99399.34
2022-08-12T16:44:00.709Z,99408.69
2022-08-12T16:46:33.562Z,99408.47
2022-08-12T16:49:09.049Z,99402.63
2022-08-12T16:51:46.555Z,99399.81
2022-08-12T16:54:16.528Z,99405.06
2022-08-12T16:56:51.174Z,99393.25
2022-08-12T16:59:22.174Z,99396.97
2022-08-12T17:01:52.144Z,99402.91
2022-08-12T17:04:24.297Z,99393.25
2022-08-12T17:06:52.043Z,99398.72
2022-08-12T17:09:20.478Z,99397.09
2022-08-12T17:11:50.324Z,99388.72
2022-08-12T17:14:22.992Z,99402.91
2022-08-12T17:16:51.473Z,99392.19
2022-08-12T17:19:25.235Z,99394.28
2022-08-12T17:22:11.033Z,99399.31
2022-08-12T17:24:54.642Z,99401.63
2022-08-12T17:27:31.116Z,99391.22
2022-08-12T17:30:04.468Z,99401.94
2022-08-12T17:32:32.818Z,99398.78
2022-08-12T17:35:01.130Z,99390.50
2022-08-12T17:37:35.617Z,99393.41
2022-08-12T17:40:15.777Z,99392.44
2022-08-12T17:42:48.827Z,99396.78
2022-08-12T17:45:18.517Z,99400.03
2022-08-12T17:48:01.696Z,99398.28
2022-08-12T17:50:35.093Z,99401.41
2022-08-12T17:53:03.784Z,99409.06
2022-08-12T17:55:43.524Z,99407.19
2022-08-12T17:58:21.505Z,99406.47
2022-08-12T18:00:50.917Z,99402.63
2022-08-12T18:04:04.263Z,99401.66
2022-08-12T18:06:14.268Z,99412.00
2022-08-12T18:08:53.572Z,99399.63
2022-08-12T18:12:04.026Z,99402.16
2022-08-12T18:14:22.634Z,99414.94
2022-08-12T18:16:57.857Z,99416.19
2022-08-12T18:19:34.191Z,99402.22
2022-08-12T18:22:22.196Z,99413.75
2022-08-12T18:25:03.722Z,99421.47
2022-08-12T18:27:43.851Z,99424.00
2022-08-12T18:30:20.595Z,99420.72
2022-08-12T18:33:05.430Z,99422.06
2022-08-12T18:35:46.835Z,99421.91
2022-08-12T18:38:22.339Z,99423.19
2022-08-12T18:40:50.687Z,99423.06
2022-08-12T18:43:18.825Z,99421.91
2022-08-12T18:45:57.016Z,99422.41
2022-08-12T18:48:25.283Z,99419.56
2022-08-12T18:51:06.485Z,99427.78
2022-08-12T18:54:07.286Z,99428.28
2022-08-12T18:56:33.914Z,99425.44
2022-08-12T18:59:03.884Z,99425.31
2022-08-12T19:02:19.622Z,99429.63
2022-08-12T19:04:21.421Z,99427.00
2022-08-12T19:06:49.127Z,99432.63
2022-08-12T19:09:17.202Z,99443.41
2022-08-12T19:11:47.102Z,99445.94
2022-08-12T19:14:16.173Z,99450.38
2022-08-12T19:16:46.390Z,99450.38
2022-08-12T19:19:17.346Z,99460.84
2022-08-12T19:21:56.421Z,99465.63
2022-08-12T19:24:24.878Z,99467.44
2022-08-12T19:26:57.295Z,99475.72
2022-08-12T19:29:24.752Z,99479.44
2022-08-12T19:31:58.690Z,99475.78
2022-08-12T19:35:54.160Z,99481.97
2022-08-12T19:37:22.967Z,99478.47
2022-08-12T19:40:10.278Z,99482.00
2022-08-12T19:42:53.295Z,99474.88
2022-08-12T19:45:22.210Z,99477.94
2022-08-12T19:47:50.584Z,99476.13
2022-08-12T19:50:19.631Z,99480.66
2022-08-12T19:52:47.490Z,99475.13
2022-08-12T19:55:21.379Z,99482.72
2022-08-12T19:58:01.808Z,99483.53
2022-08-12T20:00:34.502Z,99476.97
2022-08-12T20:03:05.728Z,99480.69
2022-08-12T20:06:04.702Z,99484.78
2022-08-12T20:08:33.993Z,99488.06
2022-08-12T20:12:14.234Z,99486.38
2022-08-12T20:14:00.412Z,99485.16
2022-08-12T20:19:19.789Z,99490.47
2022-08-12T20:21:46.751Z,99487.59
2022-08-12T20:24:14.500Z,99488.59
2022-08-12T20:26:42.981Z,99494.09
2022-08-12T20:29:12.595Z,99496.13
2022-08-12T20:31:41.391Z,99494.88
2022-08-12T20:34:12.461Z,99489.50
2022-08-12T20:36:44.137Z,99489.66
2022-08-12T20:39:17.492Z,99492.28
2022-08-12T20:42:07.167Z,99488.50
2022-08-12T20:44:37.811Z,99494.59
2022-08-12T20:47:18.525Z,99495.81
2022-08-12T20:49:55.963Z,99500.47
2022-08-12T20:52:30.322Z,99494.47
2022-08-12T20:54:58.138Z,99499.75
2022-08-12T20:57:37.723Z,99500.97
2022-08-12T21:00:08.314Z,99492.75
2022-08-12T21:02:38.973Z,99491.72
2022-08-12T21:05:16.357Z,99490.44
2022-08-12T21:07:51.991Z,99493.47
2022-08-12T21:10:20.894Z,99500.66
2022-08-12T21:12:48.456Z,99494.13
2022-08-12T21:15:23.614Z,99493.72
2022-08-12T21:18:09.380Z,99494.91
2022-08-12T21:20:42.732Z,99493.38
2022-08-12T21:23:12.163Z,99495.84
2022-08-12T21:25:45.101Z,99495.78
2022-08-12T21:28:13.394Z,99504.78
2022-08-12T21:30:41.118Z,99501.34
2022-08-12T21:33:22.007Z,99499.56
2022-08-12T21:35:48.875Z,99501.19
2022-08-12T21:38:18.719Z,99512.28
2022-08-12T21:40:52.147Z,99507.78
2022-08-12T21:43:19.802Z,99510.84
2022-08-12T21:46:00.537Z,99515.13
2022-08-12T21:48:29.072Z,99515.91
2022-08-12T21:50:56.423Z,99518.34
2022-08-12T21:54:06.284Z,99518.16
2022-08-12T21:56:20.543Z,99517.97
2022-08-12T21:59:01.213Z,99511.84
2022-08-12T22:01:30.261Z,99515.50
2022-08-12T22:04:03.230Z,99508.56
2022-08-12T22:06:43.747Z,99516.53
2022-08-12T22:09:15.769Z,99503.06
2022-08-12T22:11:49.146Z,99514.88
2022-08-12T22:14:24.200Z,99507.28
2022-08-12T22:16:54.640Z,99512.34
2022-08-12T22:19:23.355Z,99516.69
2022-08-12T22:21:54.660Z,99512.94
2022-08-12T22:24:26.366Z,99510.75
2022-08-12T22:27:14.485Z,99522.63
2022-08-12T22:29:49.673Z,99528.97
2022-08-12T22:32:16.517Z,99530.22
2022-08-12T22:34:47.210Z,99523.97
2022-08-12T22:37:19.986Z,99535.44
2022-08-12T22:39:49.053Z,99527.78
2022-08-12T22:42:19.830Z,99522.84
2022-08-12T22:44:52.533Z,99530.81
2022-08-12T22:47:53.144Z,99527.53
2022-08-12T22:50:27.843Z,99523.59
2022-08-12T22:52:56.271Z,99531.72
2022-08-12T22:56:00.743Z,99522.69
2022-08-12T22:58:12.597Z,99522.97
2022-08-12T23:00:39.711Z,99519.44
2022-08-12T23:03:06.606Z,99529.03
2022-08-12T23:05:57.074Z,99532.16
2022-08-12T23:08:23.690Z,99523.97
2022-08-12T23:10:59.751Z,99519.78
2022-08-12T23:13:27.680Z,99527.84
2022-08-12T23:16:27.763Z,99521.22
2022-08-12T23:19:10.851Z,99515.91
2022-08-12T23:22:06.077Z,99519.13
2022-08-12T23:24:36.774Z,99520.31
2022-08-12T23:27:09.711Z,99514.00
2022-08-12T23:29:43.166Z,99513.75
2022-08-12T23:32:11.242Z,99515.75
2022-08-12T23:34:38.406Z,99520.41
2022-08-12T23:37:07.718Z,99509.72
2022-08-12T23:40:15.376Z,99506.97
2022-08-12T23:42:30.709Z,99510.66
2022-08-12T23:44:58.519Z,99513.03
2022-08-12T23:47:30.904Z,99510.53
2022-08-12T23:50:13.085Z,99506.09
2022-08-12T23:52:46.816Z,99510.09
2022-08-12T23:55:25.009Z,99515.75
2022-08-12T23:58:20.906Z,99520.59
